createdAt,value
2019-05-29T00:00:11.488Z,0
2019-05-29T00:01:16.578Z,0
2019-05-29T00:02:11.016Z,0
2019-05-29T00:03:11.077Z,0
2019-05-29T00:04:11.110Z,0
2019-05-29T00:05:11.074Z,0
2019-05-29T00:06:11.103Z,0
2019-05-29T00:07:11.129Z,0
2019-05-29T00:08:11.171Z,0
2019-05-29T00:09:11.133Z,0
2019-05-29T00:10:11.167Z,0
2019-05-29T00:11:11.155Z,0
2019-05-29T00:12:14.573Z,0
2019-05-29T00:13:11.253Z,0
2019-05-29T00:14:22.502Z,0
2019-05-29T00:15:11.361Z,0
2019-05-29T00:16:11.316Z,0
2019-05-29T00:17:11.341Z,0
2019-05-29T00:18:11.336Z,0
2019-05-29T00:19:11.424Z,0
2019-05-29T00:20:11.312Z,0
2019-05-29T00:21:11.926Z,0
2019-05-29T00:22:11.339Z,0
2019-05-29T00:23:11.356Z,0
2019-05-29T00:24:11.364Z,0
2019-05-29T00:25:11.402Z,0
2019-05-29T00:26:11.415Z,0
2019-05-29T00:27:12.843Z,0
2019-05-29T00:28:11.595Z,0
2019-05-29T00:29:10.647Z,0
2019-05-29T00:30:11.803Z,0
2019-05-29T00:31:10.758Z,0
2019-05-29T00:32:12.215Z,0
2019-05-29T00:33:10.945Z,0
2019-05-29T00:34:12.044Z,0
2019-05-29T00:35:11.093Z,0
2019-05-29T00:36:11.215Z,0
2019-05-29T00:37:11.353Z,0
2019-05-29T00:38:11.485Z,0
2019-05-29T00:39:11.586Z,0
2019-05-29T00:40:11.723Z,0
2019-05-29T00:41:11.877Z,0
2019-05-29T00:42:13.055Z,0
2019-05-29T00:43:12.104Z,0
2019-05-29T00:44:12.200Z,0
2019-05-29T00:45:12.291Z,0
2019-05-29T00:46:12.417Z,0
2019-05-29T00:47:12.536Z,0
2019-05-29T00:48:12.699Z,0
2019-05-29T00:49:12.792Z,0
2019-05-29T00:50:12.954Z,0
2019-05-29T00:51:14.040Z,0
2019-05-29T00:52:13.113Z,0
2019-05-29T00:53:13.189Z,0
2019-05-29T00:54:13.349Z,0
2019-05-29T00:55:13.485Z,0
2019-05-29T00:56:13.605Z,0
2019-05-29T00:57:13.941Z,0
2019-05-29T00:58:13.872Z,0
2019-05-29T00:59:14.023Z,0
2019-05-29T01:00:14.202Z,0
2019-05-29T01:01:14.304Z,0
2019-05-29T01:02:14.464Z,0
2019-05-29T01:03:14.554Z,0
2019-05-29T01:04:14.675Z,0
2019-05-29T01:05:14.876Z,0
2019-05-29T01:06:14.976Z,0
2019-05-29T01:07:15.138Z,0
2019-05-29T01:08:15.245Z,0
2019-05-29T01:09:15.416Z,0
2019-05-29T01:10:15.618Z,0
2019-05-29T01:11:15.695Z,0
2019-05-29T01:12:15.853Z,0
2019-05-29T01:13:16.035Z,0
2019-05-29T01:14:16.162Z,0
2019-05-29T01:15:16.300Z,0
2019-05-29T01:16:16.439Z,0
2019-05-29T01:17:16.579Z,0
2019-05-29T01:18:16.718Z,0
2019-05-29T01:19:16.925Z,0
2019-05-29T01:20:16.832Z,0
2019-05-29T01:21:16.940Z,0
2019-05-29T01:22:17.086Z,0
2019-05-29T01:23:17.222Z,0
2019-05-29T01:24:17.357Z,0
2019-05-29T01:25:17.546Z,0
2019-05-29T01:26:17.580Z,0
2019-05-29T01:27:17.693Z,0
2019-05-29T01:28:17.812Z,0
2019-05-29T01:29:18.072Z,0
2019-05-29T01:30:18.134Z,0
2019-05-29T01:31:18.222Z,0
2019-05-29T01:32:18.401Z,0
2019-05-29T01:33:20.401Z,0
2019-05-29T01:34:18.652Z,0
2019-05-29T01:35:18.807Z,0
2019-05-29T01:36:18.934Z,0
2019-05-29T01:37:19.133Z,0
2019-05-29T01:38:20.227Z,0
2019-05-29T01:39:20.234Z,0
2019-05-29T01:40:25.047Z,0
2019-05-29T01:41:20.325Z,0
2019-05-29T01:42:20.309Z,0
2019-05-29T01:43:20.332Z,0
2019-05-29T01:44:20.340Z,0
2019-05-29T01:45:20.399Z,0
2019-05-29T01:46:20.431Z,0
2019-05-29T01:47:20.483Z,0
2019-05-29T01:48:20.505Z,0
2019-05-29T01:49:20.487Z,0
2019-05-29T01:50:20.538Z,0
2019-05-29T01:51:20.511Z,0
2019-05-29T01:52:20.549Z,0
2019-05-29T01:53:20.612Z,0
2019-05-29T01:54:20.597Z,0
2019-05-29T01:55:20.632Z,0
2019-05-29T01:56:20.698Z,0
2019-05-29T01:57:20.679Z,0
2019-05-29T01:58:20.773Z,0
2019-05-29T01:59:20.725Z,0
2019-05-29T02:00:20.734Z,0
2019-05-29T02:01:20.733Z,0
2019-05-29T02:02:20.733Z,0
2019-05-29T02:03:20.754Z,0
2019-05-29T02:04:20.769Z,0
2019-05-29T02:05:20.812Z,0
2019-05-29T02:06:20.830Z,0
2019-05-29T02:07:20.892Z,0
2019-05-29T02:08:21.003Z,0
2019-05-29T02:09:21.009Z,0
2019-05-29T02:10:21.083Z,0
2019-05-29T02:11:20.122Z,0
2019-05-29T02:12:21.252Z,0
2019-05-29T02:13:20.287Z,0
2019-05-29T02:14:21.496Z,0
2019-05-29T02:15:25.785Z,0
2019-05-29T02:16:21.596Z,0
2019-05-29T02:17:20.604Z,0
2019-05-29T02:18:21.768Z,0
2019-05-29T02:19:20.817Z,0
2019-05-29T02:20:21.914Z,0
2019-05-29T02:21:20.995Z,0
2019-05-29T02:22:21.929Z,0
2019-05-29T02:23:20.949Z,0
2019-05-29T02:24:22.065Z,0
2019-05-29T02:25:21.165Z,0
2019-05-29T02:26:21.256Z,0
2019-05-29T02:27:22.373Z,0
2019-05-29T02:28:21.412Z,0
2019-05-29T02:29:21.664Z,0
2019-05-29T02:30:23.450Z,0
2019-05-29T02:31:22.309Z,0
2019-05-29T02:32:22.122Z,0
2019-05-29T02:33:22.488Z,0
2019-05-29T02:34:23.035Z,0
2019-05-29T02:35:22.986Z,0
2019-05-29T02:36:22.743Z,0
2019-05-29T02:37:22.876Z,0
2019-05-29T02:38:23.295Z,0
2019-05-29T02:39:23.415Z,0
2019-05-29T02:40:24.055Z,0
2019-05-29T02:41:23.990Z,0
2019-05-29T02:42:23.536Z,0
2019-05-29T02:43:23.902Z,0
2019-05-29T02:44:23.889Z,0
2019-05-29T02:45:24.272Z,0
2019-05-29T02:46:24.315Z,0
2019-05-29T02:47:24.234Z,0
2019-05-29T02:48:25.573Z,0
2019-05-29T02:49:24.260Z,0
2019-05-29T02:50:24.492Z,0
2019-05-29T02:51:24.758Z,0
2019-05-29T02:52:24.732Z,0
2019-05-29T02:53:24.832Z,0
2019-05-29T02:54:25.290Z,0
2019-05-29T02:55:25.211Z,0
2019-05-29T02:56:25.432Z,0
2019-05-29T02:57:25.395Z,0
2019-05-29T02:58:25.769Z,0
2019-05-29T02:59:25.977Z,0
2019-05-29T03:00:26.086Z,0
2019-05-29T03:01:25.923Z,0
2019-05-29T03:02:26.135Z,0
2019-05-29T03:03:27.214Z,1
2019-05-29T03:04:26.641Z,1
2019-05-29T03:05:26.564Z,1
2019-05-29T03:06:26.686Z,0
2019-05-29T03:07:26.897Z,0
2019-05-29T03:08:27.618Z,1
2019-05-29T03:09:27.056Z,1
2019-05-29T03:10:27.263Z,1
2019-05-29T03:11:27.655Z,1
2019-05-29T03:12:27.623Z,1
2019-05-29T03:13:28.263Z,2
2019-05-29T03:14:27.754Z,1
2019-05-29T03:15:28.120Z,1
2019-05-29T03:16:28.668Z,2
2019-05-29T03:17:28.328Z,2
2019-05-29T03:18:28.560Z,2
2019-05-29T03:19:28.485Z,1
2019-05-29T03:20:28.785Z,2
2019-05-29T03:21:28.830Z,2
2019-05-29T03:22:29.108Z,2
2019-05-29T03:23:29.372Z,2
2019-05-29T03:24:29.131Z,3
2019-05-29T03:25:29.124Z,4
2019-05-29T03:26:31.177Z,3
2019-05-29T03:27:30.367Z,3
2019-05-29T03:28:30.594Z,4
2019-05-29T03:29:30.447Z,4
2019-05-29T03:30:34.480Z,5
2019-05-29T03:31:34.787Z,5
2019-05-29T03:32:32.299Z,5
2019-05-29T03:33:35.114Z,5
2019-05-29T03:34:34.457Z,5
2019-05-29T03:35:33.325Z,6
2019-05-29T03:36:35.374Z,6
2019-05-29T03:37:30.888Z,7
2019-05-29T03:38:30.890Z,7
2019-05-29T03:39:30.945Z,7
2019-05-29T03:40:31.525Z,8
2019-05-29T03:41:30.880Z,8
2019-05-29T03:42:30.906Z,8
2019-05-29T03:43:31.480Z,9
2019-05-29T03:44:31.335Z,9
2019-05-29T03:45:31.670Z,10
2019-05-29T03:46:38.503Z,10
2019-05-29T03:47:31.452Z,11
2019-05-29T03:48:30.472Z,11
2019-05-29T03:49:31.629Z,11
2019-05-29T03:50:31.125Z,11
2019-05-29T03:51:32.404Z,12
2019-05-29T03:52:30.805Z,13
2019-05-29T03:53:31.969Z,13
2019-05-29T03:54:31.293Z,13
2019-05-29T03:55:31.958Z,14
2019-05-29T03:56:31.158Z,14
2019-05-29T03:57:32.184Z,14
2019-05-29T03:58:31.439Z,15
2019-05-29T03:59:31.149Z,15
2019-05-29T04:00:38.515Z,16
2019-05-29T04:01:31.672Z,16
2019-05-29T04:02:31.629Z,17
2019-05-29T04:03:31.639Z,17
2019-05-29T04:04:31.776Z,17
2019-05-29T04:05:31.591Z,17
2019-05-29T04:06:31.729Z,17
2019-05-29T04:07:31.884Z,18
2019-05-29T04:08:31.957Z,18
2019-05-29T04:09:31.754Z,19
2019-05-29T04:10:32.798Z,19
2019-05-29T04:11:31.830Z,20
2019-05-29T04:12:31.985Z,20
2019-05-29T04:13:32.230Z,20
2019-05-29T04:14:32.032Z,20
2019-05-29T04:15:32.177Z,21
2019-05-29T04:16:51.996Z,21
2019-05-29T04:17:32.201Z,22
2019-05-29T04:18:32.201Z,22
2019-05-29T04:19:32.531Z,23
2019-05-29T04:20:32.195Z,22
2019-05-29T04:21:32.503Z,23
2019-05-29T04:22:32.834Z,24
2019-05-29T04:23:32.480Z,24
2019-05-29T04:24:32.353Z,24
2019-05-29T04:25:35.814Z,24
2019-05-29T04:26:32.638Z,24
2019-05-29T04:27:32.591Z,25
2019-05-29T04:28:32.782Z,24
2019-05-29T04:29:32.599Z,25
2019-05-29T04:30:32.687Z,25
2019-05-29T04:31:32.886Z,26
2019-05-29T04:32:32.710Z,25
2019-05-29T04:33:33.044Z,26
2019-05-29T04:34:34.206Z,26
2019-05-29T04:35:33.016Z,25
2019-05-29T04:36:33.293Z,26
2019-05-29T04:37:33.011Z,26
2019-05-29T04:38:33.725Z,26
2019-05-29T04:39:33.140Z,27
2019-05-29T04:40:33.346Z,27
2019-05-29T04:41:33.302Z,28
2019-05-29T04:42:33.937Z,27
2019-05-29T04:43:33.737Z,28
2019-05-29T04:44:33.803Z,27
2019-05-29T04:45:33.942Z,28
2019-05-29T04:46:34.556Z,29
2019-05-29T04:47:33.747Z,28
2019-05-29T04:48:33.960Z,28
2019-05-29T04:49:34.252Z,29
2019-05-29T04:50:33.998Z,29
2019-05-29T04:51:33.676Z,29
2019-05-29T04:52:34.173Z,30
2019-05-29T04:53:34.151Z,30
2019-05-29T04:54:33.917Z,29
2019-05-29T04:55:33.735Z,30
2019-05-29T04:56:33.752Z,30
2019-05-29T04:57:33.805Z,30
2019-05-29T04:58:33.809Z,31
2019-05-29T04:59:33.863Z,30
2019-05-29T05:00:33.947Z,31
2019-05-29T05:01:33.977Z,31
2019-05-29T05:02:33.982Z,31
2019-05-29T05:03:34.026Z,31
2019-05-29T05:04:34.072Z,31
2019-05-29T05:05:34.169Z,31
2019-05-29T05:06:34.179Z,32
2019-05-29T05:07:34.264Z,32
2019-05-29T05:08:34.274Z,32
2019-05-29T05:09:34.326Z,32
2019-05-29T05:10:34.426Z,31
2019-05-29T05:11:34.412Z,32
2019-05-29T05:12:34.487Z,32
2019-05-29T05:13:34.511Z,32
2019-05-29T05:14:34.553Z,32
2019-05-29T05:15:34.638Z,33
2019-05-29T05:16:34.655Z,32
2019-05-29T05:17:34.753Z,33
2019-05-29T05:18:34.759Z,33
2019-05-29T05:19:34.788Z,33
2019-05-29T05:20:34.898Z,33
2019-05-29T05:21:34.887Z,33
2019-05-29T05:22:34.947Z,33
2019-05-29T05:23:34.995Z,34
2019-05-29T05:24:35.062Z,34
2019-05-29T05:25:35.102Z,34
2019-05-29T05:26:35.148Z,34
2019-05-29T05:27:35.207Z,34
2019-05-29T05:28:35.243Z,34
2019-05-29T05:29:35.219Z,34
2019-05-29T05:30:35.318Z,34
2019-05-29T05:31:35.375Z,34
2019-05-29T05:32:35.476Z,34
2019-05-29T05:33:35.497Z,35
2019-05-29T05:34:35.536Z,34
2019-05-29T05:35:35.584Z,35
2019-05-29T05:36:35.619Z,35
2019-05-29T05:37:35.685Z,35
2019-05-29T05:38:35.656Z,35
2019-05-29T05:39:35.701Z,35
2019-05-29T05:40:38.187Z,35
2019-05-29T05:41:35.783Z,35
2019-05-29T05:42:35.844Z,35
2019-05-29T05:43:35.863Z,35
2019-05-29T05:44:35.878Z,35
2019-05-29T05:45:35.916Z,36
2019-05-29T05:46:35.992Z,36
2019-05-29T05:47:49.404Z,35
2019-05-29T05:48:36.070Z,36
2019-05-29T05:49:36.145Z,36
2019-05-29T05:50:36.171Z,35
2019-05-29T05:51:39.499Z,36
2019-05-29T05:52:36.296Z,36
2019-05-29T05:53:36.343Z,36
2019-05-29T05:54:36.391Z,36
2019-05-29T05:55:36.447Z,37
2019-05-29T05:56:36.497Z,36
2019-05-29T05:57:36.517Z,37
2019-05-29T05:58:36.561Z,37
2019-05-29T05:59:36.584Z,36
2019-05-29T06:00:36.649Z,37
2019-05-29T06:01:36.681Z,37
2019-05-29T06:02:36.721Z,36
2019-05-29T06:03:36.741Z,37
2019-05-29T06:04:36.787Z,37
2019-05-29T06:05:36.914Z,38
2019-05-29T06:06:36.943Z,37
2019-05-29T06:07:36.991Z,37
2019-05-29T06:08:37.020Z,37
2019-05-29T06:09:37.044Z,38
2019-05-29T06:10:37.081Z,37
2019-05-29T06:11:37.170Z,38
2019-05-29T06:12:37.283Z,38
2019-05-29T06:13:37.289Z,38
2019-05-29T06:14:37.341Z,38
2019-05-29T06:15:37.378Z,38
2019-05-29T06:16:37.447Z,38
2019-05-29T06:17:37.500Z,39
2019-05-29T06:18:37.477Z,39
2019-05-29T06:19:37.606Z,39
2019-05-29T06:20:37.688Z,40
2019-05-29T06:21:37.671Z,40
2019-05-29T06:22:37.759Z,40
2019-05-29T06:23:37.745Z,40
2019-05-29T06:24:37.787Z,41
2019-05-29T06:25:39.018Z,41
2019-05-29T06:26:37.850Z,41
2019-05-29T06:27:37.994Z,41
2019-05-29T06:28:37.999Z,41
2019-05-29T06:29:38.099Z,41
2019-05-29T06:30:39.240Z,41
2019-05-29T06:31:38.220Z,42
2019-05-29T06:32:38.233Z,42
2019-05-29T06:33:38.297Z,42
2019-05-29T06:34:38.354Z,42
2019-05-29T06:35:38.353Z,42
2019-05-29T06:36:38.388Z,42
2019-05-29T06:37:38.425Z,42
2019-05-29T06:38:38.593Z,42
2019-05-29T06:39:38.526Z,43
2019-05-29T06:40:38.737Z,42
2019-05-29T06:41:38.626Z,43
2019-05-29T06:42:38.645Z,43
2019-05-29T06:43:38.731Z,42
2019-05-29T06:44:39.776Z,43
2019-05-29T06:45:38.788Z,43
2019-05-29T06:46:38.936Z,43
2019-05-29T06:47:39.196Z,43
2019-05-29T06:48:44.494Z,44
2019-05-29T06:49:39.013Z,44
2019-05-29T06:50:40.093Z,43
2019-05-29T06:51:40.159Z,44
2019-05-29T06:52:40.291Z,43
2019-05-29T06:53:40.419Z,44
2019-05-29T06:54:40.660Z,44
2019-05-29T06:55:40.567Z,44
2019-05-29T06:56:40.684Z,45
2019-05-29T06:57:40.759Z,45
2019-05-29T06:58:40.870Z,45
2019-05-29T06:59:41.065Z,45
2019-05-29T07:00:41.544Z,45
2019-05-29T07:01:40.223Z,46
2019-05-29T07:02:41.374Z,73
2019-05-29T07:03:40.378Z,68
2019-05-29T07:04:41.424Z,67
2019-05-29T07:05:40.960Z,67
2019-05-29T07:06:41.613Z,67
2019-05-29T07:07:41.178Z,68
2019-05-29T07:08:44.856Z,69
2019-05-29T07:09:41.910Z,68
2019-05-29T07:10:41.109Z,68
2019-05-29T07:11:42.186Z,68
2019-05-29T07:12:41.152Z,67
2019-05-29T07:13:43.733Z,68
2019-05-29T07:14:41.372Z,68
2019-05-29T07:15:41.429Z,68
2019-05-29T07:16:49.450Z,68
2019-05-29T07:17:41.349Z,68
2019-05-29T07:19:08.342Z,70
2019-05-29T07:19:53.787Z,69
2019-05-29T07:20:41.655Z,69
2019-05-29T07:21:41.570Z,68
2019-05-29T07:22:41.653Z,69
2019-05-29T07:23:41.734Z,68
2019-05-29T07:24:41.791Z,70
2019-05-29T07:25:41.769Z,69
2019-05-29T07:26:41.858Z,70
2019-05-29T07:27:41.748Z,69
2019-05-29T07:28:58.607Z,70
2019-05-29T07:29:41.906Z,69
2019-05-29T07:30:43.882Z,69
2019-05-29T07:31:41.936Z,70
2019-05-29T07:32:42.782Z,70
2019-05-29T07:33:42.094Z,70
2019-05-29T07:34:56.566Z,67
2019-05-29T07:35:42.503Z,69
2019-05-29T07:36:42.481Z,70
2019-05-29T07:37:42.456Z,70
2019-05-29T07:38:45.733Z,70
2019-05-29T07:39:42.503Z,70
2019-05-29T07:40:43.178Z,70
2019-05-29T07:41:42.578Z,69
2019-05-29T07:42:47.873Z,70
2019-05-29T07:43:42.755Z,70
2019-05-29T07:44:42.824Z,69
2019-05-29T07:45:42.837Z,70
2019-05-29T07:46:42.946Z,69
2019-05-29T07:47:43.205Z,70
2019-05-29T07:48:43.258Z,70
2019-05-29T07:49:45.162Z,71
2019-05-29T07:50:43.070Z,74
2019-05-29T07:51:43.608Z,71
2019-05-29T07:52:43.636Z,73
2019-05-29T07:53:43.327Z,73
2019-05-29T07:54:44.372Z,75
2019-05-29T07:55:43.558Z,74
2019-05-29T07:56:43.413Z,74
2019-05-29T07:57:43.524Z,73
2019-05-29T07:58:48.707Z,74
2019-05-29T07:59:43.600Z,74
2019-05-29T08:01:04.656Z,74
2019-05-29T08:01:43.751Z,74
2019-05-29T08:02:44.043Z,75
2019-05-29T08:03:43.980Z,75
2019-05-29T08:04:43.917Z,74
2019-05-29T08:05:47.469Z,74
2019-05-29T08:06:49.542Z,74
2019-05-29T08:07:44.151Z,74
2019-05-29T08:08:44.159Z,74
2019-05-29T08:09:44.410Z,75
2019-05-29T08:10:44.355Z,75
2019-05-29T08:11:44.385Z,76
2019-05-29T08:12:48.296Z,76
2019-05-29T08:13:44.512Z,76
2019-05-29T08:14:44.545Z,75
2019-05-29T08:15:57.359Z,76
2019-05-29T08:16:44.725Z,76
2019-05-29T08:17:44.790Z,75
2019-05-29T08:18:46.047Z,75
2019-05-29T08:19:59.127Z,74
2019-05-29T08:20:44.945Z,76
2019-05-29T08:21:45.152Z,76
2019-05-29T08:22:45.176Z,75
2019-05-29T08:23:45.223Z,76
2019-05-29T08:24:46.207Z,76
2019-05-29T08:25:46.350Z,75
2019-05-29T08:26:45.456Z,75
2019-05-29T08:27:45.457Z,76
2019-05-29T08:28:45.517Z,76
2019-05-29T08:29:45.579Z,76
2019-05-29T08:30:49.877Z,76
2019-05-29T08:31:45.650Z,76
2019-05-29T08:32:45.815Z,75
2019-05-29T08:33:45.710Z,77
2019-05-29T08:34:45.779Z,75
2019-05-29T08:35:45.836Z,74
2019-05-29T08:36:59.671Z,77
2019-05-29T08:37:45.900Z,77
2019-05-29T08:38:46.130Z,77
2019-05-29T08:39:46.272Z,76
2019-05-29T08:40:46.277Z,77
2019-05-29T08:42:05.258Z,77
2019-05-29T08:42:46.239Z,77
2019-05-29T08:43:47.249Z,77
2019-05-29T08:44:46.341Z,78
2019-05-29T08:45:46.803Z,77
2019-05-29T08:47:04.044Z,79
2019-05-29T08:47:46.563Z,79
2019-05-29T08:48:46.850Z,77
2019-05-29T08:49:49.475Z,77
2019-05-29T08:50:46.689Z,81
2019-05-29T08:51:46.783Z,80
2019-05-29T08:52:46.871Z,80
2019-05-29T08:53:46.937Z,82
2019-05-29T08:54:47.026Z,82
2019-05-29T08:55:47.088Z,81
2019-05-29T08:56:47.135Z,81
2019-05-29T08:57:47.155Z,79
2019-05-29T08:58:47.255Z,79
2019-05-29T08:59:47.403Z,80
2019-05-29T09:00:50.461Z,81
2019-05-29T09:01:48.596Z,80
2019-05-29T09:02:47.422Z,80
2019-05-29T09:03:47.499Z,81
2019-05-29T09:04:48.169Z,82
2019-05-29T09:06:01.370Z,81
2019-05-29T09:06:47.860Z,79
2019-05-29T09:07:48.251Z,79
2019-05-29T09:08:48.438Z,79
2019-05-29T09:09:47.847Z,78
2019-05-29T09:10:47.952Z,79
2019-05-29T09:11:48.286Z,79
2019-05-29T09:12:56.491Z,81
2019-05-29T09:17:17.242Z,2194
2019-05-29T09:18:18.077Z,2241
2019-05-29T09:19:17.205Z,2259
2019-05-29T09:20:31.855Z,2221
2019-05-29T09:21:17.827Z,2205
2019-05-29T09:22:17.463Z,2219
2019-05-29T09:23:17.572Z,2211
2019-05-29T09:24:17.914Z,2204
2019-05-29T09:25:17.819Z,2224
2019-05-29T09:26:20.988Z,2210
2019-05-29T09:27:17.994Z,2203
2019-05-29T09:28:18.956Z,2208
2019-05-29T09:29:20.548Z,2206
2019-05-29T09:30:18.693Z,2216
2019-05-29T09:31:18.953Z,2222
2019-05-29T09:32:20.562Z,2238
2019-05-29T09:33:20.135Z,2239
2019-05-29T09:34:19.206Z,2249
2019-05-29T09:35:20.086Z,2245
2019-05-29T09:36:19.199Z,2237
2019-05-29T09:37:19.374Z,2244
2019-05-29T09:38:19.683Z,2244
2019-05-29T09:39:19.826Z,2252
2019-05-29T09:40:19.663Z,2252
2019-05-29T09:41:19.813Z,2265
2019-05-29T09:42:20.649Z,2280
2019-05-29T09:43:21.410Z,2275
2019-05-29T09:44:33.751Z,2273
2019-05-29T09:45:20.256Z,2277
2019-05-29T09:46:20.565Z,2284
2019-05-29T09:47:20.621Z,2285
2019-05-29T09:48:23.715Z,2307
2019-05-29T09:49:20.750Z,2327
2019-05-29T09:50:21.373Z,2301
2019-05-29T09:51:56.826Z,2453
2019-05-29T09:52:58.903Z,2448
2019-05-29T09:53:57.967Z,2451
2019-05-29T09:54:57.107Z,2449
2019-05-29T09:55:57.646Z,2452
2019-05-29T09:56:58.222Z,2446
2019-05-29T09:57:57.401Z,2452
2019-05-29T09:58:58.280Z,2446
2019-05-29T09:59:58.402Z,2443
2019-05-29T10:02:00.247Z,2441
2019-05-29T10:02:58.187Z,2424
2019-05-29T10:03:59.944Z,2460
2019-05-29T10:04:58.490Z,2511
2019-05-29T10:05:58.193Z,2542
2019-05-29T10:06:58.298Z,2516
2019-05-29T10:07:58.477Z,2540
2019-05-29T10:08:58.468Z,2574
2019-05-29T10:09:59.095Z,2577
2019-05-29T10:11:05.781Z,2552
2019-05-29T10:12:01.275Z,2517
2019-05-29T10:12:58.782Z,2508
2019-05-29T10:13:59.200Z,2470
2019-05-29T10:14:59.335Z,2425
2019-05-29T10:15:59.372Z,2460
2019-05-29T10:17:02.604Z,2496
2019-05-29T10:17:59.390Z,2509
2019-05-29T10:19:00.196Z,2507
2019-05-29T10:19:59.546Z,2520
2019-05-29T10:20:59.950Z,2536
2019-05-29T10:22:00.540Z,2545
2019-05-29T10:22:59.901Z,2553
2019-05-29T10:24:00.031Z,2548
2019-05-29T10:25:00.422Z,2534
2019-05-29T10:26:00.651Z,2543
2019-05-29T10:27:01.459Z,2549
2019-05-29T10:29:50.219Z,29
2019-05-29T10:30:46.701Z,30
2019-05-29T10:31:47.630Z,29
2019-05-29T10:32:46.824Z,76
2019-05-29T10:33:46.935Z,76
2019-05-29T10:34:47.185Z,76
2019-05-29T10:35:49.540Z,76
2019-05-29T10:36:50.333Z,81
2019-05-29T10:37:47.415Z,76
2019-05-29T10:38:47.348Z,77
2019-05-29T10:39:47.571Z,74
2019-05-29T10:41:00.001Z,76
2019-05-29T10:41:47.682Z,76
2019-05-29T10:42:47.854Z,77
2019-05-29T10:43:47.894Z,79
2019-05-29T10:44:47.979Z,79
2019-05-29T10:45:48.429Z,79
2019-05-29T10:46:50.334Z,79
2019-05-29T10:47:48.297Z,79
2019-05-29T10:48:50.779Z,79
2019-05-29T10:49:48.537Z,79
2019-05-29T10:50:50.901Z,81
2019-05-29T10:52:05.307Z,81
2019-05-29T10:52:48.882Z,80
2019-05-29T10:53:50.242Z,80
2019-05-29T10:54:49.150Z,82
2019-05-29T10:55:49.334Z,82
2019-05-29T10:56:49.356Z,82
2019-05-29T10:57:49.468Z,83
2019-05-29T10:58:54.243Z,83
2019-05-29T10:59:49.656Z,83
2019-05-29T11:00:49.874Z,83
2019-05-29T11:01:49.933Z,84
2019-05-29T11:02:50.524Z,83
2019-05-29T11:03:50.152Z,84
2019-05-29T11:04:53.593Z,84
2019-05-29T11:05:50.404Z,85
2019-05-29T11:06:50.714Z,85
2019-05-29T11:07:50.636Z,86
2019-05-29T11:08:50.759Z,86
2019-05-29T11:09:50.908Z,85
2019-05-29T11:10:50.985Z,86
2019-05-29T11:11:51.349Z,87
2019-05-29T11:12:51.293Z,86
2019-05-29T11:13:51.561Z,88
2019-05-29T11:14:51.543Z,87
2019-05-29T11:15:51.612Z,88
2019-05-29T11:16:52.060Z,89
2019-05-29T11:17:51.954Z,90
2019-05-29T11:18:52.188Z,90
2019-05-29T11:19:52.170Z,91
2019-05-29T11:20:52.280Z,92
2019-05-29T11:21:52.443Z,92
2019-05-29T11:22:52.542Z,94
2019-05-29T11:23:52.671Z,95
2019-05-29T11:24:52.807Z,95
2019-05-29T11:25:52.924Z,95
2019-05-29T11:26:53.419Z,96
2019-05-29T11:27:53.562Z,97
2019-05-29T11:28:53.239Z,97
2019-05-29T11:29:53.693Z,98
2019-05-29T11:30:54.060Z,99
2019-05-29T11:31:53.769Z,100
2019-05-29T11:32:55.535Z,99
2019-05-29T11:33:53.708Z,98
2019-05-29T11:34:54.201Z,96
2019-05-29T11:36:00.473Z,100
2019-05-29T11:36:55.119Z,99
2019-05-29T11:37:55.311Z,99
2019-05-29T11:38:55.376Z,100
2019-05-29T11:39:55.682Z,101
2019-05-29T11:41:19.249Z,101
2019-05-29T11:41:55.698Z,102
2019-05-29T11:42:55.619Z,104
2019-05-29T11:43:55.672Z,104
2019-05-29T11:44:55.737Z,106
2019-05-29T11:45:56.139Z,104
2019-05-29T11:46:54.815Z,105
2019-05-29T11:47:57.254Z,106
2019-05-29T11:48:55.970Z,105
2019-05-29T11:49:56.474Z,107
2019-05-29T11:50:55.113Z,107
2019-05-29T11:52:18.379Z,108
2019-05-29T11:52:55.303Z,111
2019-05-29T11:53:56.323Z,111
2019-05-29T11:54:57.929Z,111
2019-05-29T11:55:56.476Z,112
2019-05-29T11:56:55.887Z,117
2019-05-29T11:57:56.681Z,127
2019-05-29T11:58:55.746Z,134
2019-05-29T12:00:00.040Z,130
2019-05-29T12:00:56.034Z,112
2019-05-29T12:01:57.256Z,119
2019-05-29T12:02:56.272Z,122
2019-05-29T12:04:17.902Z,121
2019-05-29T12:04:56.124Z,114
2019-05-29T12:05:56.253Z,112
2019-05-29T12:06:56.177Z,111
2019-05-29T12:07:56.156Z,113
2019-05-29T12:08:56.426Z,116
2019-05-29T12:09:56.278Z,125
2019-05-29T12:10:56.259Z,133
2019-05-29T12:11:56.590Z,141
2019-05-29T12:12:56.305Z,147
2019-05-29T12:13:56.534Z,148
2019-05-29T12:15:04.600Z,149
2019-05-29T12:15:56.566Z,156
2019-05-29T12:16:56.742Z,153
2019-05-29T12:18:11.981Z,111
2019-05-29T12:18:56.662Z,95
2019-05-29T12:19:56.850Z,98
2019-05-29T12:20:56.862Z,97
2019-05-29T12:21:56.945Z,90
2019-05-29T12:23:18.165Z,139
2019-05-29T12:23:57.072Z,92
2019-05-29T12:24:57.250Z,93
2019-05-29T12:26:15.829Z,106
2019-05-29T12:26:57.317Z,132
2019-05-29T12:27:57.752Z,118
2019-05-29T12:29:04.453Z,123
2019-05-29T12:29:57.607Z,135
2019-05-29T12:30:57.782Z,158
2019-05-29T12:31:57.687Z,107
2019-05-29T12:32:57.979Z,122
2019-05-29T12:33:59.888Z,101
2019-05-29T12:34:58.526Z,134
2019-05-29T12:35:57.875Z,103
2019-05-29T12:36:58.242Z,164
2019-05-29T12:37:58.129Z,170
2019-05-29T12:38:58.301Z,174
2019-05-29T12:39:58.175Z,173
2019-05-29T12:40:58.279Z,167
2019-05-29T12:41:58.332Z,176
2019-05-29T12:42:58.287Z,173
2019-05-29T12:43:58.302Z,171
2019-05-29T12:44:58.333Z,173
2019-05-29T12:45:58.373Z,185
2019-05-29T12:46:58.382Z,176
2019-05-29T12:47:58.526Z,184
2019-05-29T12:48:58.366Z,176
2019-05-29T12:49:58.606Z,167
2019-05-29T12:50:58.685Z,101
2019-05-29T12:51:58.433Z,97
2019-05-29T12:52:58.417Z,97
2019-05-29T12:53:58.761Z,96
2019-05-29T12:54:58.863Z,97
2019-05-29T12:55:58.867Z,102
2019-05-29T12:56:58.702Z,104
2019-05-29T12:57:58.692Z,102
2019-05-29T12:58:59.095Z,112
2019-05-29T12:59:58.873Z,111
2019-05-29T13:00:59.075Z,120
2019-05-29T13:01:59.049Z,125
2019-05-29T13:02:59.246Z,194
2019-05-29T13:03:59.098Z,216
2019-05-29T13:05:13.672Z,220
2019-05-29T13:05:59.225Z,209
2019-05-29T13:06:59.248Z,200
2019-05-29T13:07:59.305Z,194
2019-05-29T13:08:59.257Z,192
2019-05-29T13:09:59.265Z,192
2019-05-29T13:10:59.287Z,196
2019-05-29T13:11:59.270Z,199
2019-05-29T13:13:04.732Z,201
2019-05-29T13:13:59.420Z,210
2019-05-29T13:14:59.465Z,218
2019-05-29T13:15:59.507Z,225
2019-05-29T13:16:59.524Z,230
2019-05-29T13:18:03.925Z,230
2019-05-29T13:18:59.715Z,232
2019-05-29T13:20:07.911Z,249
2019-05-29T13:20:59.845Z,277
2019-05-29T13:22:00.242Z,192
2019-05-29T13:23:00.395Z,190
2019-05-29T13:24:02.699Z,338
2019-05-29T13:25:00.195Z,322
2019-05-29T13:26:00.397Z,187
2019-05-29T13:27:00.424Z,200
2019-05-29T13:28:01.519Z,220
2019-05-29T13:29:00.429Z,303
2019-05-29T13:30:02.338Z,366
2019-05-29T13:31:00.575Z,353
2019-05-29T13:32:02.388Z,155
2019-05-29T13:33:03.492Z,135
2019-05-29T13:34:00.929Z,137
2019-05-29T13:35:00.830Z,122
2019-05-29T13:36:00.887Z,120
2019-05-29T13:37:04.505Z,134
2019-05-29T13:38:01.927Z,147
2019-05-29T13:39:01.009Z,160
2019-05-29T13:40:01.692Z,215
2019-05-29T13:41:01.090Z,361
2019-05-29T13:42:05.541Z,237
2019-05-29T13:43:06.812Z,191
2019-05-29T13:44:01.223Z,190
2019-05-29T13:45:06.691Z,1269
2019-05-29T13:46:01.444Z,1024
2019-05-29T13:47:02.580Z,6376
2019-05-29T13:48:01.818Z,16917
2019-05-29T13:49:01.613Z,12951
2019-05-29T13:50:06.217Z,2268
2019-05-29T13:51:02.125Z,1192
2019-05-29T13:52:04.358Z,1500
2019-05-29T13:53:02.064Z,4389
2019-05-29T13:54:08.108Z,4059
2019-05-29T13:55:02.347Z,2820
2019-05-29T13:56:02.580Z,4921
2019-05-29T13:57:03.026Z,9232
2019-05-29T13:58:02.592Z,5381
2019-05-29T13:59:02.884Z,1778
2019-05-29T14:00:10.459Z,1270
2019-05-29T14:01:02.977Z,372
2019-05-29T14:02:04.637Z,1192
2019-05-29T14:03:03.137Z,1216
2019-05-29T14:04:03.233Z,1769
2019-05-29T14:05:03.252Z,1507
2019-05-29T14:06:03.626Z,1085
2019-05-29T14:07:03.663Z,1685
2019-05-29T14:08:03.459Z,6224
2019-05-29T14:09:03.611Z,5848
2019-05-29T14:10:04.601Z,260
2019-05-29T14:11:03.822Z,167
2019-05-29T14:12:03.777Z,199
2019-05-29T14:13:03.878Z,215
2019-05-29T14:14:04.482Z,165
2019-05-29T14:15:05.088Z,157
2019-05-29T14:16:05.100Z,212
2019-05-29T14:17:05.259Z,1511
2019-05-29T14:18:05.485Z,1049
2019-05-29T14:19:05.614Z,1033
2019-05-29T14:20:05.669Z,899